Time;durP1;ratioP1;P1;durP2;ratioP2;P2;SDS_P1;SDS_P2;PMS_P1;PMS_P2;Temp;Humidity;BMP_temperature;BMP_pressure;BME280_temperature;BME280_humidity;BME280_pressure;Samples;Min_cycle;Max_cycle;Signal;HPM_P1;HPM_P2
2022/07/18 00:01:50;;;;;;;;;;;;;;;21.33;27.92;99848.19;4997954;28;20379;-93
2022/07/18 00:04:16;;;;;;;;;;;;;;;21.23;28.12;99851.31;4997730;28;19917;-93
2022/07/18 00:06:41;;;;;;;;;;;;;;;21.26;28.22;99858.88;4997017;28;19924;-93
2022/07/18 00:09:06;;;;;;;;;;;;;;;21.16;28.55;99863.56;4997145;28;19964;-93
2022/07/18 00:11:31;;;;;;;;;;;;;;;21.22;28.64;99858.72;4998014;28;19920;-93
2022/07/18 00:13:57;;;;;;;;;;;;;;;21.17;29.19;99867.94;5001031;28;19920;-93
2022/07/18 00:16:22;;;;;;;;;;;;;;;21.04;29.64;99874.41;5000642;28;19919;-93
2022/07/18 00:18:48;;;;;;;;;;;;;;;21.10;29.48;99872.28;5000362;28;19940;-93
2022/07/18 00:21:13;;;;;;;;;;;;;;;21.02;29.61;99878.59;5001208;28;20383;-93
2022/07/18 00:23:38;;;;;;;;;;;;;;;20.97;29.28;99880.38;5000641;28;19914;-92
2022/07/18 00:26:04;;;;;;;;;;;;;;;20.99;29.37;99883.59;5000316;28;19921;-93
2022/07/18 00:28:29;;;;;;;;;;;;;;;20.94;29.29;99867.34;5000631;28;19913;-93
2022/07/18 00:30:54;;;;;;;;;;;;;;;20.95;29.68;99870.88;5000849;28;19924;-92
2022/07/18 00:33:20;;;;;;;;;;;;;;;20.94;29.55;99877.50;5000320;28;19913;-93
2022/07/18 00:35:45;;;;;;;;;;;;;;;20.90;30.01;99874.59;5000752;28;19920;-92
2022/07/18 00:38:10;;;;;;;;;;;;;;;20.83;30.11;99873.50;5000204;28;19923;-93
2022/07/18 00:40:36;;;;;;;;;;;;;;;20.79;30.46;99874.16;5000454;28;19913;-92
2022/07/18 00:43:01;;;;;;;;;;;;;;;20.77;30.30;99879.16;5000268;28;19913;-93
2022/07/18 00:45:26;;;;;;;;;;;;;;;20.68;30.35;99886.53;5000325;28;19918;-92
2022/07/18 00:47:52;;;;;;;;;;;;;;;20.67;30.55;99895.06;4999968;28;19913;-92
2022/07/18 00:50:20;;;;;;;;;;;;;;;20.70;30.71;99897.97;5000272;28;19913;-93
2022/07/18 00:52:46;;;;;;;;;;;;;;;20.70;30.83;99900.72;5000166;28;20298;-93
2022/07/18 00:55:11;;;;;;;;;;;;;;;20.67;30.96;99908.75;5000347;28;20024;-92
2022/07/18 00:57:36;;;;;;;;;;;;;;;20.78;30.64;99908.09;5000104;28;20400;-93
2022/07/18 01:02:47;;;;;;;;;;;;;;;20.81;29.75;99905.84;5019088;28;19967;-93
2022/07/18 01:05:12;;;;;;;;;;;;;;;20.74;30.32;99901.69;5000022;28;19941;-93
2022/07/18 01:07:37;;;;;;;;;;;;;;;20.82;28.83;99899.25;5003698;28;19913;-93
2022/07/18 01:10:03;;;;;;;;;;;;;;;20.86;29.15;99895.56;5004280;28;19913;-93
2022/07/18 01:12:29;;;;;;;;;;;;;;;20.89;28.96;99902.31;5016994;28;19922;-93
2022/07/18 01:14:55;;;;;;;;;;;;;;;20.87;29.51;99899.09;5001486;28;19918;-93
2022/07/18 01:17:21;;;;;;;;;;;;;;;20.90;29.70;99898.44;5001493;28;20046;-92
2022/07/18 01:19:46;;;;;;;;;;;;;;;20.90;30.30;99903.94;5000411;28;19983;-93
2022/07/18 01:22:12;;;;;;;;;;;;;;;20.95;29.55;99907.28;5001052;28;19953;-93
2022/07/18 01:24:37;;;;;;;;;;;;;;;20.95;29.50;99912.75;5016713;28;19921;-93
2022/07/18 01:27:03;;;;;;;;;;;;;;;20.89;30.11;99916.00;5017356;28;19920;-93
2022/07/18 01:29:28;;;;;;;;;;;;;;;20.85;29.93;99901.34;5000566;28;19921;-94
2022/07/18 01:31:53;;;;;;;;;;;;;;;20.88;30.04;99906.19;5000949;28;19913;-94
2022/07/18 01:34:22;;;;;;;;;;;;;;;20.96;28.95;99908.91;5001038;28;19913;-93
2022/07/18 01:36:47;;;;;;;;;;;;;;;21.01;28.87;99902.44;5001160;28;19913;-93
2022/07/18 01:39:13;;;;;;;;;;;;;;;20.97;28.39;99906.97;5000846;28;19972;-93
2022/07/18 01:41:38;;;;;;;;;;;;;;;20.93;28.60;99904.06;5000789;28;19921;-92
2022/07/18 01:44:03;;;;;;;;;;;;;;;20.90;28.94;99915.66;5000874;28;19913;-93
2022/07/18 01:46:29;;;;;;;;;;;;;;;20.93;29.27;99916.94;5016865;28;19917;-93
2022/07/18 01:48:54;;;;;;;;;;;;;;;20.81;29.18;99914.06;5016572;28;19924;-93
2022/07/18 01:51:19;;;;;;;;;;;;;;;20.80;29.21;99921.47;5000898;28;19913;-93
2022/07/18 01:53:45;;;;;;;;;;;;;;;20.70;29.32;99919.88;5000328;28;20375;-93
2022/07/18 01:56:11;;;;;;;;;;;;;;;20.62;29.65;99926.16;5000815;28;19924;-93
2022/07/18 01:58:37;;;;;;;;;;;;;;;20.66;29.55;99918.09;5000378;28;19917;-93
2022/07/18 02:01:02;;;;;;;;;;;;;;;20.75;29.93;99922.47;4999948;28;20005;-93
2022/07/18 02:03:27;;;;;;;;;;;;;;;20.74;30.17;99920.03;4999764;28;19913;-92
2022/07/18 02:05:52;;;;;;;;;;;;;;;20.70;30.44;99919.88;5000133;28;19917;-93
2022/07/18 02:08:18;;;;;;;;;;;;;;;20.76;30.27;99926.78;4999845;28;19921;-93
2022/07/18 02:10:43;;;;;;;;;;;;;;;20.74;29.70;99925.50;4999893;28;19991;-93
2022/07/18 02:13:08;;;;;;;;;;;;;;;20.62;29.61;99926.16;4999730;28;19921;-92
2022/07/18 02:15:34;;;;;;;;;;;;;;;20.57;30.04;99929.03;4999827;28;20303;-93
2022/07/18 02:17:59;;;;;;;;;;;;;;;20.54;29.97;99927.75;5000115;28;19914;-93
2022/07/18 02:20:24;;;;;;;;;;;;;;;20.52;30.02;99938.19;4999723;28;20015;-93
2022/07/18 02:22:50;;;;;;;;;;;;;;;20.55;30.15;99939.47;4999687;28;20272;-93
2022/07/18 02:25:15;;;;;;;;;;;;;;;20.53;30.70;99944.47;4999391;28;20449;-92
2022/07/18 02:27:40;;;;;;;;;;;;;;;20.45;31.39;99951.53;4999567;28;19913;-93
2022/07/18 02:30:06;;;;;;;;;;;;;;;20.46;30.94;99946.88;5000396;28;20375;-93
2022/07/18 02:32:31;;;;;;;;;;;;;;;20.51;30.65;99958.47;4999908;28;20307;-93
2022/07/18 02:34:57;;;;;;;;;;;;;;;20.37;30.26;99955.88;5000188;28;20295;-93
2022/07/18 02:37:22;;;;;;;;;;;;;;;20.32;31.34;99957.97;4998952;28;19914;-93
2022/07/18 02:39:47;;;;;;;;;;;;;;;20.30;30.95;99955.53;4999219;28;19914;-93
2022/07/18 02:42:13;;;;;;;;;;;;;;;20.27;31.32;99961.63;4999004;28;19913;-93
2022/07/18 02:44:38;;;;;;;;;;;;;;;20.19;33.40;99974.19;4999265;28;20372;-94
2022/07/18 02:47:03;;;;;;;;;;;;;;;20.16;33.87;99974.00;4999124;28;19975;-92
2022/07/18 02:49:29;;;;;;;;;;;;;;;20.07;33.82;99979.47;4999873;28;19914;-93
2022/07/18 02:51:54;;;;;;;;;;;;;;;19.98;33.82;99979.44;4999460;28;20387;-94
2022/07/18 02:54:20;;;;;;;;;;;;;;;19.94;33.51;99978.47;5016902;28;19919;-93
2022/07/18 02:56:45;;;;;;;;;;;;;;;19.81;33.29;99973.88;4998389;28;20008;-93
2022/07/18 02:59:10;;;;;;;;;;;;;;;19.81;33.92;99979.34;5015443;28;19921;-93
2022/07/18 03:01:36;;;;;;;;;;;;;;;19.75;34.15;99975.16;5015783;28;19948;-93
2022/07/18 03:04:02;;;;;;;;;;;;;;;19.79;34.05;99981.59;5015406;28;19913;-93
2022/07/18 03:06:28;;;;;;;;;;;;;;;19.84;33.94;99986.94;4998443;28;19921;-93
2022/07/18 03:08:53;;;;;;;;;;;;;;;19.81;34.72;99989.50;4998584;28;20000;-92
2022/07/18 03:11:18;;;;;;;;;;;;;;;19.71;34.28;99982.38;5016025;28;19963;-93
2022/07/18 03:13:43;;;;;;;;;;;;;;;19.66;34.02;99996.94;4998441;28;20402;-93
2022/07/18 03:16:09;;;;;;;;;;;;;;;19.63;33.96;99994.03;4999504;28;19920;-94
2022/07/18 03:18:34;;;;;;;;;;;;;;;19.68;33.98;99993.91;4998939;28;20371;-94
2022/07/18 03:20:59;;;;;;;;;;;;;;;19.75;33.42;99997.00;4998787;28;19920;-93
2022/07/18 03:23:25;;;;;;;;;;;;;;;19.70;33.38;99997.97;4998377;28;20351;-93
2022/07/18 03:25:50;;;;;;;;;;;;;;;19.62;33.22;100004.16;4998369;28;19924;-94
2022/07/18 03:28:16;;;;;;;;;;;;;;;19.68;33.27;100002.09;4999496;28;19949;-95
2022/07/18 03:30:42;;;;;;;;;;;;;;;19.81;33.44;99995.75;4998123;28;19914;-93
2022/07/18 03:33:07;;;;;;;;;;;;;;;19.93;33.09;100004.16;4998787;28;19913;-93
2022/07/18 03:35:32;;;;;;;;;;;;;;;19.80;34.12;100007.81;4998392;28;20418;-94
2022/07/18 03:37:58;;;;;;;;;;;;;;;19.82;34.13;100008.31;4999410;28;19913;-93
2022/07/18 03:40:23;;;;;;;;;;;;;;;19.63;34.46;100007.69;5001570;28;19972;-93
2022/07/18 03:42:48;;;;;;;;;;;;;;;19.57;34.02;100007.03;5014459;28;19914;-90
2022/07/18 03:45:16;;;;;;;;;;;;;;;19.48;34.94;100019.81;5014448;28;19918;-93
2022/07/18 03:47:42;;;;;;;;;;;;;;;19.41;34.76;100022.19;5000058;28;20510;-93
2022/07/18 03:50:07;;;;;;;;;;;;;;;19.28;34.55;100023.84;4999809;28;20000;-92
2022/07/18 03:52:32;;;;;;;;;;;;;;;19.31;34.62;100026.78;4998737;28;19913;-92
2022/07/18 03:55:01;;;;;;;;;;;;;;;19.37;35.12;100024.72;4998266;28;19914;-92
2022/07/18 03:57:26;;;;;;;;;;;;;;;19.47;34.75;100029.16;5000372;28;19932;-94
2022/07/18 03:59:52;;;;;;;;;;;;;;;19.35;35.12;100029.69;4999993;28;19913;-92
2022/07/18 04:02:17;;;;;;;;;;;;;;;19.33;35.47;100034.66;5014310;28;19913;-92
2022/07/18 04:04:42;;;;;;;;;;;;;;;19.31;35.14;100042.38;5014163;28;20012;-92
2022/07/18 04:07:08;;;;;;;;;;;;;;;19.30;36.06;100043.47;5009941;28;19929;-93
2022/07/18 04:09:33;;;;;;;;;;;;;;;19.26;35.43;100043.28;4996857;28;19913;-95
2022/07/18 04:11:58;;;;;;;;;;;;;;;19.24;36.23;100042.00;4999605;28;19921;-94
2022/07/18 04:14:24;;;;;;;;;;;;;;;19.23;37.20;100040.38;5019727;28;19913;-94
2022/07/18 04:16:49;;;;;;;;;;;;;;;19.24;36.63;100044.72;5017600;28;19913;-94
2022/07/18 04:19:17;;;;;;;;;;;;;;;19.33;36.69;100051.06;5018849;28;20593;-93
2022/07/18 04:21:43;;;;;;;;;;;;;;;19.40;36.14;100056.88;5017242;28;20004;-94
2022/07/18 04:24:08;;;;;;;;;;;;;;;19.39;36.17;100055.28;5018331;28;19913;-93
2022/07/18 04:26:33;;;;;;;;;;;;;;;19.49;36.17;100056.94;5019017;28;19917;-93
2022/07/18 04:28:59;;;;;;;;;;;;;;;19.48;36.34;100058.06;5017266;28;19999;-93
2022/07/18 04:31:24;;;;;;;;;;;;;;;19.45;36.74;100062.22;5016838;28;19913;-92
2022/07/18 04:33:49;;;;;;;;;;;;;;;19.53;36.28;100063.41;5019257;28;19913;-92
2022/07/18 04:36:15;;;;;;;;;;;;;;;19.59;36.92;100062.97;5021991;28;20374;-91
2022/07/18 04:38:41;;;;;;;;;;;;;;;19.72;36.20;100064.03;5017939;28;19913;-93
2022/07/18 04:41:06;;;;;;;;;;;;;;;19.72;36.66;100069.50;5016919;28;20010;-92
2022/07/18 04:43:31;;;;;;;;;;;;;;;19.84;35.80;100065.38;5018278;28;19913;-91
2022/07/18 04:45:57;;;;;;;;;;;;;;;19.94;35.25;100063.19;5018429;28;19921;-92
2022/07/18 04:48:22;;;;;;;;;;;;;;;20.06;35.30;100070.00;5020729;28;19944;-92
2022/07/18 04:50:47;;;;;;;;;;;;;;;20.06;36.23;100070.78;5019322;28;20272;-91
2022/07/18 04:53:13;;;;;;;;;;;;;;;20.18;35.87;100068.28;5020375;28;19913;-93
2022/07/18 04:55:38;;;;;;;;;;;;;;;20.21;36.53;100069.56;5019855;28;19917;-90
2022/07/18 04:58:03;;;;;;;;;;;;;;;20.33;36.59;100071.69;5019145;28;19924;-90
2022/07/18 05:00:28;;;;;;;;;;;;;;;20.38;35.64;100077.03;5017515;28;19913;-90
2022/07/18 05:02:54;;;;;;;;;;;;;;;20.39;35.91;100076.69;4997157;28;19920;-93
2022/07/18 05:05:20;;;;;;;;;;;;;;;20.48;35.98;100074.03;5017061;28;19917;-95
2022/07/18 05:07:45;;;;;;;;;;;;;;;20.56;34.60;100077.88;5020823;28;19953;-95
2022/07/18 05:10:14;;;;;;;;;;;;;;;20.64;34.14;100073.59;4983351;28;19960;-91
2022/07/18 05:12:41;;;;;;;;;;;;;;;20.70;34.49;100081.31;4985204;28;20008;-96
2022/07/18 05:15:07;;;;;;;;;;;;;;;20.82;34.63;100082.66;4986279;28;19959;-95
2022/07/18 05:17:32;;;;;;;;;;;;;;;20.70;34.59;100083.25;4982453;28;19914;-93
2022/07/18 05:19:57;;;;;;;;;;;;;;;20.86;34.45;100086.38;4985492;28;19956;-94
2022/07/18 05:22:23;;;;;;;;;;;;;;;20.94;34.43;100083.63;4997877;28;19913;-93
2022/07/18 05:24:55;;;;;;;;;;;;;;;21.01;35.35;100082.34;5003608;28;19980;-94
2022/07/18 05:27:20;;;;;;;;;;;;;;;21.08;34.21;100088.94;5007139;28;19921;-93
2022/07/18 05:29:45;;;;;;;;;;;;;;;21.11;34.96;100082.84;5001824;28;19914;-91
2022/07/18 05:32:12;;;;;;;;;;;;;;;21.11;35.12;100088.31;5004618;28;19917;-92
2022/07/18 05:34:37;;;;;;;;;;;;;;;21.37;33.97;100096.53;4999778;28;19913;-96
2022/07/18 05:37:02;;;;;;;;;;;;;;;21.28;33.85;100097.66;4998729;28;19913;-92
2022/07/18 05:39:31;;;;;;;;;;;;;;;21.31;34.30;100094.25;4987442;28;19967;-92
2022/07/18 05:41:56;;;;;;;;;;;;;;;21.37;34.10;100090.22;4987750;28;19914;-91
2022/07/18 05:44:22;;;;;;;;;;;;;;;21.33;33.95;100100.22;4992343;28;19913;-92
2022/07/18 05:46:47;;;;;;;;;;;;;;;21.52;34.35;100091.69;5000472;28;20346;-92
2022/07/18 05:49:13;;;;;;;;;;;;;;;21.38;34.31;100100.06;4983952;28;19913;-93
2022/07/18 05:51:44;;;;;;;;;;;;;;;21.36;34.77;100089.44;4997020;28;19913;-94
2022/07/18 05:54:09;;;;;;;;;;;;;;;21.53;34.83;100087.84;5002637;28;19914;-94
2022/07/18 05:56:35;;;;;;;;;;;;;;;21.61;34.56;100087.03;5004860;28;19968;-95
2022/07/18 05:59:01;;;;;;;;;;;;;;;21.71;34.88;100080.41;5007381;28;19945;-93
2022/07/18 06:01:43;;;;;;;;;;;;;;;21.74;34.44;100087.97;4998208;28;19913;-93
2022/07/18 06:04:21;;;;;;;;;;;;;;;;;;;;;
2022/07/18 06:06:50;;;;;;;;;;;;;;;21.89;35.17;100098.41;5030600;28;20007;-94
2022/07/18 06:09:16;;;;;;;;;;;;;;;22.05;34.21;100095.94;4986247;28;19918;-94
2022/07/18 06:11:41;;;;;;;;;;;;;;;22.08;34.54;100099.97;4997765;28;19921;-94
2022/07/18 06:14:06;;;;;;;;;;;;;;;22.29;34.64;100095.41;5007039;28;19917;-94
2022/07/18 06:16:32;;;;;;;;;;;;;;;22.30;34.00;100104.44;5020959;28;19913;-93
2022/07/18 06:18:57;;;;;;;;;;;;;;;22.43;33.91;100108.88;4992540;28;19914;-95
2022/07/18 06:21:23;;;;;;;;;;;;;;;22.49;34.05;100109.50;4993139;28;20268;-95
2022/07/18 06:23:48;;;;;;;;;;;;;;;22.57;34.39;100111.41;4984543;28;19932;-96
2022/07/18 06:26:13;;;;;;;;;;;;;;;22.47;33.61;100109.03;4984834;28;20013;-94
2022/07/18 06:28:42;;;;;;;;;;;;;;;22.38;34.60;100096.16;5006555;28;19972;-95
2022/07/18 06:31:08;;;;;;;;;;;;;;;22.43;33.92;100106.13;4989088;28;19917;-94
2022/07/18 06:33:34;;;;;;;;;;;;;;;22.33;33.95;100104.59;4991956;28;20307;-96
2022/07/18 06:35:59;;;;;;;;;;;;;;;22.49;33.68;100104.81;5011078;28;19922;-95
2022/07/18 06:38:40;;;;;;;;;;;;;;;22.58;34.42;100107.56;5043258;28;19920;-93
2022/07/18 06:41:13;;;;;;;;;;;;;;;22.64;34.81;100108.13;5023029;28;19917;-91
2022/07/18 06:43:38;;;;;;;;;;;;;;;22.76;33.81;100103.53;5005073;28;19913;-93
2022/07/18 06:46:04;;;;;;;;;;;;;;;22.91;33.68;100093.13;5003534;28;20000;-93
2022/07/18 06:48:33;;;;;;;;;;;;;;;22.92;34.74;100090.03;5038620;28;20438;-93
2022/07/18 06:51:01;;;;;;;;;;;;;;;22.88;33.89;100088.31;5036949;28;19935;-94
2022/07/18 06:53:27;;;;;;;;;;;;;;;22.89;33.22;100098.97;5003915;28;19913;-91
2022/07/18 06:55:56;;;;;;;;;;;;;;;22.79;34.25;100091.09;5004848;28;19971;-95
2022/07/18 06:58:22;;;;;;;;;;;;;;;22.88;34.40;100100.09;4990912;28;19913;-94
2022/07/18 07:00:51;;;;;;;;;;;;;;;23.08;34.08;100093.03;5005214;28;19913;-95
2022/07/18 07:03:22;;;;;;;;;;;;;;;;;;5006773;28;19981;-94
2022/07/18 07:05:49;;;;;;;;;;;;;;;23.13;33.46;100089.28;5007849;28;19918;-95
2022/07/18 07:08:35;;;;;;;;;;;;;;;23.24;33.81;100092.41;5004160;28;19913;-93
2022/07/18 07:11:03;;;;;;;;;;;;;;;23.18;33.13;100094.59;4993386;28;19919;-94
2022/07/18 07:13:29;;;;;;;;;;;;;;;23.34;33.63;100078.28;4981718;28;19921;-95
2022/07/18 07:15:58;;;;;;;;;;;;;;;23.50;33.14;100081.19;4998829;28;19914;-92
2022/07/18 07:18:24;;;;;;;;;;;;;;;23.64;33.66;100086.38;4985515;28;20000;-94
2022/07/18 07:20:49;;;;;;;;;;;;;;;23.69;33.21;100089.72;4998905;28;19953;-90
2022/07/18 07:23:16;;;;;;;;;;;;;;;23.70;33.05;100091.34;5008102;28;19929;-93
2022/07/18 07:25:42;;;;;;;;;;;;;;;23.77;33.29;100077.88;5000518;28;20433;-93
2022/07/18 07:28:07;;;;;;;;;;;;;;;23.99;33.17;100075.88;5017723;28;19918;-96
2022/07/18 07:30:38;;;;;;;;;;;;;;;24.21;32.06;100082.88;5033918;28;19973;-92
2022/07/18 07:33:27;;;;;;;;;;;;;;;24.33;32.25;100079.34;4988022;28;19928;-92
2022/07/18 07:35:52;;;;;;;;;;;;;;;24.44;32.47;100091.47;4992656;28;19913;-92
2022/07/18 07:38:18;;;;;;;;;;;;;;;24.41;32.24;100090.22;5006148;28;19920;-91
2022/07/18 07:40:51;;;;;;;;;;;;;;;24.26;32.47;100077.16;4999394;28;19949;-90
2022/07/18 07:43:17;;;;;;;;;;;;;;;24.32;32.13;100078.53;5005922;28;19914;-91
2022/07/18 07:45:43;;;;;;;;;;;;;;;24.43;32.10;100089.09;4982596;28;19925;-95
2022/07/18 07:48:08;;;;;;;;;;;;;;;24.35;32.68;100077.84;5004977;28;19914;-94
2022/07/18 07:50:38;;;;;;;;;;;;;;;24.59;32.72;100081.75;5002381;28;19918;-92
2022/07/18 07:53:04;;;;;;;;;;;;;;;24.76;31.95;100078.75;4978164;28;19995;-92
2022/07/18 07:55:29;;;;;;;;;;;;;;;24.88;32.10;100071.59;4977648;28;20384;-91
2022/07/18 07:57:54;;;;;;;;;;;;;;;24.75;31.71;100079.91;4979233;28;19918;-93
2022/07/18 08:00:22;;;;;;;;;;;;;;;24.72;31.91;100091.63;4978227;28;20362;-91
2022/07/18 08:02:57;;;;;;;;;;;;;;;24.74;31.41;100081.06;4987830;28;19945;-95
2022/07/18 08:05:23;;;;;;;;;;;;;;;24.77;31.97;100091.38;5001134;28;19917;-93
2022/07/18 08:07:52;;;;;;;;;;;;;;;24.91;31.63;100093.75;4987409;28;20468;-95
2022/07/18 08:10:18;;;;;;;;;;;;;;;24.94;31.68;100092.25;5004823;28;19968;-95
2022/07/18 08:12:50;;;;;;;;;;;;;;;25.00;31.74;100099.13;4990135;28;19948;-95
2022/07/18 08:15:24;;;;;;;;;;;;;;;25.05;31.84;100098.91;5003902;28;20104;-93
2022/07/18 08:17:50;;;;;;;;;;;;;;;25.23;31.77;100096.69;4985345;28;20368;-94
2022/07/18 08:20:18;;;;;;;;;;;;;;;25.17;31.61;100098.88;4987404;28;19917;-95
2022/07/18 08:23:00;;;;;;;;;;;;;;;25.25;30.94;100099.91;4984244;28;19924;-92
2022/07/18 08:25:25;;;;;;;;;;;;;;;25.17;30.98;100096.13;4987557;28;20387;-94
2022/07/18 08:27:54;;;;;;;;;;;;;;;25.26;31.47;100087.72;5005233;28;19920;-95
2022/07/18 08:30:44;;;;;;;;;;;;;;;25.30;31.50;100088.63;4997744;28;19955;-92
2022/07/18 08:33:09;;;;;;;;;;;;;;;25.41;31.13;100088.94;4998995;28;19971;-93
2022/07/18 08:35:35;;;;;;;;;;;;;;;25.65;30.94;100087.19;4983583;28;19921;-93
2022/07/18 08:38:00;;;;;;;;;;;;;;;25.66;29.95;100086.84;4997678;28;20000;-93
2022/07/18 08:40:26;;;;;;;;;;;;;;;25.62;30.74;100091.47;5012262;28;19917;-93
2022/07/18 08:42:52;;;;;;;;;;;;;;;25.70;30.94;100093.28;5018696;28;19913;-92
2022/07/18 08:45:22;;;;;;;;;;;;;;;25.80;31.63;100083.69;5020341;28;19917;-93
2022/07/18 08:47:50;;;;;;;;;;;;;;;25.94;30.42;100094.31;5024561;28;20445;-95
2022/07/18 08:50:15;;;;;;;;;;;;;;;25.90;29.67;100097.00;5007481;28;20000;-96
2022/07/18 08:52:40;;;;;;;;;;;;;;;25.81;30.81;100088.03;4985374;28;19968;-93
2022/07/18 08:55:06;;;;;;;;;;;;;;;25.95;29.98;100082.13;4997248;28;19913;-94
2022/07/18 08:57:32;;;;;;;;;;;;;;;25.96;30.23;100089.25;5020672;28;19917;-92
2022/07/18 08:59:57;;;;;;;;;;;;;;;26.11;29.96;100093.19;5006165;28;20004;-94
2022/07/18 09:02:28;;;;;;;;;;;;;;;26.20;30.18;100091.03;5005589;28;20388;-95
2022/07/18 09:04:58;;;;;;;;;;;;;;;26.23;28.86;100084.81;5017008;28;19913;-95
2022/07/18 09:07:25;;;;;;;;;;;;;;;26.09;29.98;100085.25;5008713;28;20083;-95
2022/07/18 09:09:54;;;;;;;;;;;;;;;26.13;30.12;100075.09;5010380;28;19924;-95
2022/07/18 09:12:20;;;;;;;;;;;;;;;26.25;30.26;100071.47;5010258;28;19921;-96
2022/07/18 09:14:49;;;;;;;;;;;;;;;26.35;29.99;100075.63;5008365;28;19916;-95
2022/07/18 09:20:11;;;;;;;;;;;;;;;26.50;30.07;100069.28;5021851;28;19924;-90
2022/07/18 09:22:37;;;;;;;;;;;;;;;26.56;29.59;100073.38;5018247;28;19924;-92
2022/07/18 09:25:09;;;;;;;;;;;;;;;26.57;30.44;100071.44;5002453;28;19961;-91
2022/07/18 09:27:41;;;;;;;;;;;;;;;26.66;28.38;100069.25;5003505;28;19967;-93
2022/07/18 09:30:07;;;;;;;;;;;;;;;26.79;28.71;100072.69;5005726;28;19997;-95
2022/07/18 09:32:32;;;;;;;;;;;;;;;26.77;28.36;100073.09;5023314;28;19920;-92
2022/07/18 09:35:07;;;;;;;;;;;;;;;26.80;29.26;100069.59;5005301;28;19920;-93
2022/07/18 09:37:39;;;;;;;;;;;;;;;26.84;28.50;100069.66;5020796;28;19920;-94
2022/07/18 09:40:15;;;;;;;;;;;;;;;26.96;28.76;100071.50;5025785;28;19913;-95
2022/07/18 09:42:44;;;;;;;;;;;;;;;26.95;28.84;100061.59;5006940;28;19921;-93
2022/07/18 09:45:09;;;;;;;;;;;;;;;26.88;27.80;100058.69;4990739;28;20012;-94
2022/07/18 09:47:48;;;;;;;;;;;;;;;26.90;28.53;100056.38;5007007;28;20324;-93
2022/07/18 09:50:27;;;;;;;;;;;;;;;26.98;28.00;100055.38;5022319;28;19979;-92
2022/07/18 09:53:05;;;;;;;;;;;;;;;26.88;29.17;100050.41;5042215;28;19944;-95
2022/07/18 09:55:30;;;;;;;;;;;;;;;27.04;28.66;100048.38;5022544;28;19930;-93
2022/07/18 09:57:59;;;;;;;;;;;;;;;27.13;28.58;100048.97;5021345;28;19921;-91
2022/07/18 10:00:29;;;;;;;;;;;;;;;27.20;28.72;100049.09;5021063;28;19913;-93
2022/07/18 10:02:58;;;;;;;;;;;;;;;27.17;28.32;100046.28;5025182;28;19988;-94
2022/07/18 10:05:24;;;;;;;;;;;;;;;27.20;28.39;100048.28;5004508;28;19921;-93
2022/07/18 10:07:57;;;;;;;;;;;;;;;27.27;28.50;100055.97;4986556;28;19920;-94
2022/07/18 10:10:24;;;;;;;;;;;;;;;27.45;28.33;100059.88;4986360;28;20379;-92
2022/07/18 10:12:52;;;;;;;;;;;;;;;27.42;27.69;100057.84;4982161;28;19921;-92
2022/07/18 10:15:17;;;;;;;;;;;;;;;27.39;27.71;100053.84;4982212;28;20302;-91
2022/07/18 10:17:45;;;;;;;;;;;;;;;27.45;27.44;100050.78;4981093;28;20005;-96
2022/07/18 10:20:11;;;;;;;;;;;;;;;27.55;28.81;100039.91;4989946;28;19929;-95
2022/07/18 10:22:37;;;;;;;;;;;;;;;27.77;28.21;100037.56;4985408;28;20033;-96
2022/07/18 10:25:09;;;;;;;;;;;;;;;27.92;27.97;100035.84;4981499;28;19922;-94
2022/07/18 10:27:47;;;;;;;;;;;;;;;28.00;27.81;100040.34;4982448;28;19971;-94
2022/07/18 10:30:12;;;;;;;;;;;;;;;28.11;27.78;100032.19;4991855;28;20403;-95
2022/07/18 10:32:40;;;;;;;;;;;;;;;28.15;26.91;100031.09;4997894;28;19914;-93
2022/07/18 10:35:10;;;;;;;;;;;;;;;28.19;26.99;100020.06;5014147;28;19988;-95
2022/07/18 10:37:36;;;;;;;;;;;;;;;28.15;27.22;100021.97;4998818;28;19917;-92
2022/07/18 10:40:20;;;;;;;;;;;;;;;28.27;27.53;100021.78;4998476;28;20357;-94
2022/07/18 10:42:45;;;;;;;;;;;;;;;28.32;27.17;100028.97;4998161;28;19917;-95
2022/07/18 10:45:27;;;;;;;;;;;;;;;28.17;25.75;100028.75;4997022;28;20012;-96
2022/07/18 10:47:53;;;;;;;;;;;;;;;27.90;26.69;100027.13;5000593;28;19916;-94
2022/07/18 10:50:21;;;;;;;;;;;;;;;27.96;26.65;100026.44;4998168;28;20331;-94
2022/07/18 10:56:01;;;;;;;;;;;;;;;28.21;26.42;100015.75;4949667;28;19950;-96
2022/07/18 11:01:51;;;;;;;;;;;;;;;28.48;26.50;100004.66;4929970;29;19921;-95
2022/07/18 11:04:44;;;;;;;;;;;;;;;28.58;26.05;99992.19;4924808;29;19919;-95
2022/07/18 11:07:14;;;;;;;;;;;;;;;28.55;26.20;99988.16;4999731;28;20380;-95
2022/07/18 11:09:42;;;;;;;;;;;;;;;28.71;27.13;99992.72;4998075;28;19914;-92
2022/07/18 11:12:26;;;;;;;;;;;;;;;28.87;26.17;99978.69;5000801;28;19937;-94
2022/07/18 11:15:01;;;;;;;;;;;;;;;29.00;25.43;99982.78;5019366;28;20028;-94
2022/07/18 11:17:48;;;;;;;;;;;;;;;29.02;26.01;99977.66;5000769;28;20461;-96
2022/07/18 11:20:40;;;;;;;;;;;;;;;29.00;25.02;99968.94;5002782;28;19913;-93
2022/07/18 11:23:18;;;;;;;;;;;;;;;29.01;25.52;99959.41;5009046;28;19970;-90
2022/07/18 11:25:48;;;;;;;;;;;;;;;28.85;26.06;99936.69;4990682;28;19918;-94
2022/07/18 11:28:29;;;;;;;;;;;;;;;28.98;25.98;99952.66;5002437;28;19964;-94
2022/07/18 11:31:01;;;;;;;;;;;;;;;28.85;25.59;99973.50;4983454;28;19918;-93
2022/07/18 11:33:35;;;;;;;;;;;;;;;28.77;25.77;99972.63;4984811;28;19921;-93
2022/07/18 11:36:07;;;;;;;;;;;;;;;28.76;26.15;99972.97;4987065;28;19987;-92
2022/07/18 11:38:35;;;;;;;;;;;;;;;28.81;26.27;99967.91;5000612;28;19969;-93
2022/07/18 11:41:00;;;;;;;;;;;;;;;28.96;25.73;99976.41;4983702;28;19997;-94
2022/07/18 11:43:26;;;;;;;;;;;;;;;28.94;26.15;99967.66;4984966;28;19921;-94
2022/07/18 11:46:13;;;;;;;;;;;;;;;29.13;25.68;99961.16;5001510;28;19925;-94
2022/07/18 11:48:39;;;;;;;;;;;;;;;29.27;25.72;99958.53;4983908;28;19975;-93
2022/07/18 11:51:11;;;;;;;;;;;;;;;29.19;25.63;99960.44;4999374;28;19985;-93
2022/07/18 11:53:42;;;;;;;;;;;;;;;29.19;25.45;99954.88;5000557;28;20383;-93
2022/07/18 11:56:07;;;;;;;;;;;;;;;29.14;25.86;99952.47;5002621;28;19917;-92
2022/07/18 11:58:37;;;;;;;;;;;;;;;29.26;25.25;99945.03;5002405;28;20016;-94
2022/07/18 12:01:02;;;;;;;;;;;;;;;29.32;25.25;99954.63;5005101;28;19956;-93
2022/07/18 12:03:27;;;;;;;;;;;;;;;29.00;25.17;99946.75;5002300;28;19920;-90
2022/07/18 12:05:53;;;;;;;;;;;;;;;29.29;24.98;99941.53;5034509;28;20335;-93
2022/07/18 12:08:34;;;;;;;;;;;;;;;29.39;24.47;99932.50;5017402;28;19913;-91
2022/07/18 12:11:07;;;;;;;;;;;;;;;29.57;24.73;99938.19;5016863;28;19913;-92
2022/07/18 12:13:41;;;;;;;;;;;;;;;29.73;25.33;99940.75;5000415;28;20016;-94
2022/07/18 12:16:06;;;;;;;;;;;;;;;29.79;24.34;99937.22;4993754;28;19959;-91
2022/07/18 12:18:32;;;;;;;;;;;;;;;29.92;23.91;99934.91;4979560;28;19997;-92
2022/07/18 12:21:08;;;;;;;;;;;;;;;30.10;24.59;99923.94;4977758;28;19914;-93
2022/07/18 12:23:33;;;;;;;;;;;;;;;30.16;24.45;99933.50;4978798;28;19914;-93
2022/07/18 12:26:01;;;;;;;;;;;;;;;30.34;23.26;99922.53;4985446;28;19917;-94
2022/07/18 12:28:26;;;;;;;;;;;;;;;30.44;23.88;99925.72;5003477;28;20367;-90
2022/07/18 12:30:52;;;;;;;;;;;;;;;30.53;22.57;99923.41;5001905;28;20003;-92
2022/07/18 12:33:17;;;;;;;;;;;;;;;30.65;23.50;99925.03;5016645;28;19980;-92
2022/07/18 12:35:42;;;;;;;;;;;;;;;30.71;22.52;99921.47;4998415;28;19921;-88
2022/07/18 12:38:17;;;;;;;;;;;;;;;30.78;22.45;99926.28;5012614;28;19913;-88
2022/07/18 12:40:47;;;;;;;;;;;;;;;30.78;22.73;99929.84;5012261;28;19956;-90
2022/07/18 12:43:18;;;;;;;;;;;;;;;30.78;22.74;99918.72;5012925;28;20474;-89
2022/07/18 12:45:43;;;;;;;;;;;;;;;30.48;23.45;99919.00;5011910;28;19918;-89
2022/07/18 12:48:09;;;;;;;;;;;;;;;30.55;23.15;99910.69;5013415;28;20393;-91
2022/07/18 12:50:34;;;;;;;;;;;;;;;30.55;23.90;99919.03;5013108;28;19913;-90
2022/07/18 12:53:10;;;;;;;;;;;;;;;;;;;;;
2022/07/18 12:55:39;;;;;;;;;;;;;;;30.52;23.47;99916.25;5017592;28;20036;-96
2022/07/18 12:58:05;;;;;;;;;;;;;;;30.37;23.80;99918.94;5000949;28;20008;-94